Time;durP1;ratioP1;P1;durP2;ratioP2;P2;SDS_P1;SDS_P2;PMS_P1;PMS_P2;Temp;Humidity;BMP_temperature;BMP_pressure;BME280_temperature;BME280_humidity;BME280_pressure;Samples;Min_cycle;Max_cycle;Signal;HPM_P1;HPM_P2
2022/07/15 08:58:35;;;;;;;5.38;1.48;;;;;;;;;;5069838;28;20051;-75
2022/07/15 09:01:01;;;;;;;4.80;1.58;;;;;;;;;;5066889;28;20139;-75
2022/07/15 09:03:27;;;;;;;4.35;1.42;;;;;;;;;;5064660;28;20059;-75
2022/07/15 09:05:53;;;;;;;7.55;1.70;;;;;;;;;;5069036;28;20060;-75
2022/07/15 09:08:19;;;;;;;4.53;1.75;;;;;;;;;;5070273;28;20055;-75
2022/07/15 09:10:56;;;;;;;4.47;1.65;;;;;;;;;;5069942;28;20090;-75
2022/07/15 09:13:24;;;;;;;4.38;1.70;;;;;;;;;;5073886;28;20047;-75
2022/07/15 09:15:51;;;;;;;4.43;1.42;;;;;;;;;;5072901;28;20068;-75
2022/07/15 09:18:21;;;;;;;4.82;1.63;;;;;;;;;;5069344;28;20491;-75
2022/07/15 09:20:48;;;;;;;3.60;1.48;;;;;;;;;;5064868;28;20047;-75
2022/07/15 09:23:21;;;;;;;4.13;1.40;;;;;;;;;;5071020;28;20029;-75
2022/07/15 09:25:48;;;;;;;3.33;1.23;;;;;;;;;;5072806;28;20039;-75
2022/07/15 09:28:14;;;;;;;4.63;1.77;;;;;;;;;;5074704;28;20036;-76
2022/07/15 09:36:02;;;;;;;5.50;1.30;;;;;;;;;;5066432;28;20070;-75
2022/07/15 09:38:32;;;;;;;6.97;1.70;;;;;;;;;;5077143;28;20044;-75
2022/07/15 09:40:59;;;;;;;4.22;0.93;;;;;;;;;;5069533;28;20036;-75
2022/07/15 09:43:25;;;;;;;2.28;1.02;;;;;;;;;;5072280;28;20093;-75
2022/07/15 09:45:58;;;;;;;9.20;1.13;;;;;;;;;;5067105;28;20043;-75
2022/07/15 09:48:25;;;;;;;4.22;0.93;;;;;;;;;;5068131;28;20044;-75
2022/07/15 09:50:51;;;;;;;3.83;1.58;;;;;;;;;;5062024;28;20529;-75
2022/07/15 09:53:17;;;;;;;4.15;1.15;;;;;;;;;;5074379;28;20071;-75
2022/07/15 09:55:43;;;;;;;2.95;1.00;;;;;;;;;;5066182;28;20463;-75
2022/07/15 09:58:09;;;;;;;4.03;1.10;;;;;;;;;;5075535;28;20548;-75
2022/07/15 10:00:37;;;;;;;8.68;0.95;;;;;;;;;;5096004;28;20039;-75
2022/07/15 10:03:03;;;;;;;6.40;0.98;;;;;;;;;;5092733;28;20031;-75
2022/07/15 10:05:30;;;;;;;4.88;1.10;;;;;;;;;;5091851;28;20047;-75
2022/07/15 10:07:58;;;;;;;4.95;0.90;;;;;;;;;;5092348;28;20072;-75
2022/07/15 10:10:24;;;;;;;2.30;0.85;;;;;;;;;;5088035;28;20111;-75
2022/07/15 10:12:56;;;;;;;2.83;1.00;;;;;;;;;;5088717;28;20043;-75
2022/07/15 10:15:22;;;;;;;2.65;0.68;;;;;;;;;;5092151;28;20036;-75
2022/07/15 10:17:57;;;;;;;2.88;0.93;;;;;;;;;;5086978;28;20089;-75
2022/07/15 10:20:29;;;;;;;16.27;1.30;;;;;;;;;;5090983;28;20579;-76
2022/07/15 10:23:06;;;;;;;3.33;0.80;;;;;;;;;;5078392;28;20520;-75
2022/07/15 10:25:41;;;;;;;7.45;0.90;;;;;;;;;;5090372;28;20555;-75
2022/07/15 10:28:16;;;;;;;3.90;0.90;;;;;;;;;;5088796;28;20101;-75
2022/07/15 10:30:43;;;;;;;3.70;0.80;;;;;;;;;;5090739;28;20043;-75
2022/07/15 10:33:13;;;;;;;3.63;1.58;;;;;;;;;;5091446;28;20076;-75
2022/07/15 10:35:44;;;;;;;4.50;1.13;;;;;;;;;;5087204;28;20032;-75
2022/07/15 10:38:24;;;;;;;2.22;0.82;;;;;;;;;;5088114;28;20032;-75
2022/07/15 10:41:01;;;;;;;2.90;1.10;;;;;;;;;;5086235;28;20040;-75
2022/07/15 10:43:39;;;;;;;2.65;0.82;;;;;;;;;;5087509;28;20027;-75
2022/07/15 10:46:12;;;;;;;4.47;0.95;;;;;;;;;;5090305;28;20032;-75
2022/07/15 10:48:38;;;;;;;2.65;0.98;;;;;;;;;;5090279;28;20107;-76
2022/07/15 10:51:04;;;;;;;3.45;1.17;;;;;;;;;;5088175;28;20562;-75
2022/07/15 10:53:30;;;;;;;6.25;0.90;;;;;;;;;;5090781;28;20039;-75
2022/07/15 10:56:13;;;;;;;4.15;1.17;;;;;;;;;;5091654;28;20591;-75
2022/07/15 10:58:39;;;;;;;3.20;0.98;;;;;;;;;;5089248;28;20075;-75
2022/07/15 11:01:11;;;;;;;4.30;1.10;;;;;;;;;;5089185;28;20207;-75
2022/07/15 11:03:56;;;;;;;5.57;1.00;;;;;;;;;;5088573;28;20038;-75
2022/07/15 11:06:23;;;;;;;7.72;1.05;;;;;;;;;;5089245;28;20047;-75
2022/07/15 11:08:49;;;;;;;3.97;1.10;;;;;;;;;;5085614;28;20039;-75
2022/07/15 11:11:15;;;;;;;4.47;0.80;;;;;;;;;;5091492;28;20043;-75
2022/07/15 11:13:43;;;;;;;2.00;1.10;;;;;;;;;;5095105;28;20076;-75
2022/07/15 11:16:10;;;;;;;2.92;0.82;;;;;;;;;;5088103;28;20032;-75
2022/07/15 11:18:49;;;;;;;3.45;1.00;;;;;;;;;;5092813;28;20544;-75
2022/07/15 11:21:15;;;;;;;6.30;1.40;;;;;;;;;;5090543;28;20748;-75
2022/07/15 11:23:45;;;;;;;3.47;1.27;;;;;;;;;;5090158;28;20027;-75
2022/07/15 11:26:11;;;;;;;4.80;1.00;;;;;;;;;;5086967;28;20090;-75
2022/07/15 11:28:37;;;;;;;6.88;1.00;;;;;;;;;;5091371;28;20422;-75
2022/07/15 11:31:03;;;;;;;4.60;1.10;;;;;;;;;;5088376;28;20032;-75
2022/07/15 11:33:30;;;;;;;3.40;1.08;;;;;;;;;;5087864;28;20531;-75
2022/07/15 11:36:00;;;;;;;3.40;1.00;;;;;;;;;;5090418;28;20044;-75
2022/07/15 11:38:30;;;;;;;3.28;0.95;;;;;;;;;;5090109;28;20378;-75
2022/07/15 11:46:31;;;;;;;3.58;0.95;;;;;;;;;;5089357;28;20720;-75
2022/07/15 11:48:58;;;;;;;2.47;0.70;;;;;;;;;;5094638;28;20092;-75
2022/07/15 11:51:26;;;;;;;1.35;0.70;;;;;;;;;;5086972;28;20043;-75
2022/07/15 11:53:52;;;;;;;5.75;1.20;;;;;;;;;;5086282;28;20036;-75
2022/07/15 11:56:18;;;;;;;6.22;1.10;;;;;;;;;;5086301;28;20047;-76
2022/07/15 11:58:51;;;;;;;7.93;1.40;;;;;;;;;;5087624;28;20052;-75
2022/07/15 12:01:18;;;;;;;4.93;0.98;;;;;;;;;;5086489;28;20035;-76
2022/07/15 12:03:45;;;;;;;3.65;1.10;;;;;;;;;;5090043;28;20028;-75
2022/07/15 12:06:19;;;;;;;2.42;0.90;;;;;;;;;;5085167;28;20024;-75
2022/07/15 12:08:48;;;;;;;5.78;0.90;;;;;;;;;;5090043;28;20100;-75
2022/07/15 12:11:17;;;;;;;4.93;0.80;;;;;;;;;;5087761;28;20044;-75
2022/07/15 12:13:45;;;;;;;2.70;0.85;;;;;;;;;;5093287;28;20490;-75
2022/07/15 12:16:11;;;;;;;6.90;1.17;;;;;;;;;;5070609;28;20509;-75
2022/07/15 12:18:37;;;;;;;5.60;1.08;;;;;;;;;;5087132;28;20816;-75
2022/07/15 12:21:03;;;;;;;5.65;1.38;;;;;;;;;;5085755;28;20483;-75
2022/07/15 12:23:29;;;;;;;4.85;1.25;;;;;;;;;;5086881;28;20540;-75
2022/07/15 12:26:03;;;;;;;2.95;0.90;;;;;;;;;;5087519;28;20036;-75
2022/07/15 12:28:30;;;;;;;3.17;0.90;;;;;;;;;;5088621;28;20458;-75
2022/07/15 12:30:56;;;;;;;4.88;1.40;;;;;;;;;;5086806;28;20036;-75
2022/07/15 12:33:23;;;;;;;4.55;1.15;;;;;;;;;;5091137;28;20970;-75
2022/07/15 12:35:50;;;;;;;2.20;0.80;;;;;;;;;;5091960;28;20791;-75
2022/07/15 12:38:26;;;;;;;3.85;0.70;;;;;;;;;;5087344;28;20028;-75
2022/07/15 12:40:52;;;;;;;1.63;0.80;;;;;;;;;;5092037;28;20040;-75
2022/07/15 12:43:18;;;;;;;5.13;1.08;;;;;;;;;;5086729;28;20035;-75
2022/07/15 12:45:44;;;;;;;5.47;1.10;;;;;;;;;;5086094;28;20036;-75
2022/07/15 12:48:13;;;;;;;5.32;0.80;;;;;;;;;;5085781;28;20417;-75
2022/07/15 12:50:51;;;;;;;2.92;1.13;;;;;;;;;;5089642;28;20570;-75
2022/07/15 12:53:18;;;;;;;4.07;1.10;;;;;;;;;;5086524;28;20673;-75
2022/07/15 12:55:45;;;;;;;2.83;0.90;;;;;;;;;;5090054;28;20046;-76
2022/07/15 12:58:14;;;;;;;4.00;0.85;;;;;;;;;;5086488;28;20048;-75
2022/07/15 13:00:41;;;;;;;3.55;0.90;;;;;;;;;;5089623;28;20032;-75
2022/07/15 13:03:08;;;;;;;2.83;1.02;;;;;;;;;;5090595;28;20062;-75
2022/07/15 13:05:34;;;;;;;6.43;1.00;;;;;;;;;;5094230;28;20057;-75
2022/07/15 13:08:00;;;;;;;4.40;0.85;;;;;;;;;;5065214;28;20031;-75
2022/07/15 13:10:27;;;;;;;5.50;1.33;;;;;;;;;;5086577;28;20039;-75
2022/07/15 13:12:53;;;;;;;3.08;0.98;;;;;;;;;;5088449;28;20494;-75
2022/07/15 13:15:20;;;;;;;6.65;0.90;;;;;;;;;;5089480;28;20032;-75
2022/07/15 13:17:46;;;;;;;2.22;1.00;;;;;;;;;;5084943;28;20107;-75
2022/07/15 13:20:12;;;;;;;5.13;1.00;;;;;;;;;;5072040;28;20054;-75
2022/07/15 13:22:38;;;;;;;2.08;1.02;;;;;;;;;;5084964;28;20028;-75
2022/07/15 13:25:05;;;;;;;4.63;1.10;;;;;;;;;;5088631;28;20039;-75
2022/07/15 13:27:31;;;;;;;2.75;0.82;;;;;;;;;;5073787;28;20077;-75
2022/07/15 13:29:57;;;;;;;5.15;1.00;;;;;;;;;;5086830;28;20462;-75
2022/07/15 13:32:23;;;;;;;2.97;0.98;;;;;;;;;;5090521;28;20051;-75
2022/07/15 13:34:49;;;;;;;2.33;0.65;;;;;;;;;;5086870;28;20036;-75
2022/07/15 13:37:15;;;;;;;5.18;0.95;;;;;;;;;;5071789;28;20132;-75
2022/07/15 13:39:41;;;;;;;2.88;0.80;;;;;;;;;;5086819;28;20074;-75
2022/07/15 13:42:07;;;;;;;3.20;0.88;;;;;;;;;;5087125;28;20044;-75
2022/07/15 13:44:33;;;;;;;2.67;0.80;;;;;;;;;;5084456;28;20028;-76
2022/07/15 13:46:59;;;;;;;6.18;1.20;;;;;;;;;;5087402;28;20036;-75
2022/07/15 13:52:10;;;;;;;4.00;0.90;;;;;;;;;;5088652;28;20398;-75
2022/07/15 16:24:01;;;;;;;4.40;1.05;;;;;;;;;;5091103;28;20082;-75
2022/07/15 16:26:27;;;;;;;6.35;1.02;;;;;;;;;;5086678;28;20047;-75
2022/07/15 16:28:53;;;;;;;10.63;1.33;;;;;;;;;;5089654;28;20039;-75
2022/07/15 16:31:21;;;;;;;5.57;1.52;;;;;;;;;;5090125;28;20391;-75
2022/07/15 16:33:47;;;;;;;3.60;1.30;;;;;;;;;;5066359;28;20905;-75
2022/07/15 16:36:13;;;;;;;6.25;1.48;;;;;;;;;;5085063;28;20040;-75
2022/07/15 16:38:39;;;;;;;4.97;1.23;;;;;;;;;;5088905;28;20040;-75
2022/07/15 16:44:08;;;;;;;3.80;1.30;;;;;;;;;;5086840;28;20034;-75
2022/07/15 16:46:34;;;;;;;2.85;1.10;;;;;;;;;;5088494;28;20028;-75
2022/07/15 16:49:00;;;;;;;4.47;1.38;;;;;;;;;;5091401;28;20471;-75
2022/07/15 16:51:26;;;;;;;7.47;1.35;;;;;;;;;;5088257;28;20124;-76
2022/07/15 16:53:52;;;;;;;3.45;1.45;;;;;;;;;;5089139;28;20377;-75
2022/07/15 16:56:18;;;;;;;5.55;1.38;;;;;;;;;;5086873;28;20032;-75
2022/07/15 16:58:44;;;;;;;6.32;1.23;;;;;;;;;;5086554;28;20070;-75
2022/07/15 20:29:24;;;;;;;5.90;2.00;;;;;;;;;;5085762;28;20154;-75
2022/07/15 20:31:50;;;;;;;6.22;2.30;;;;;;;;;;5088039;28;20043;-75
2022/07/15 20:34:17;;;;;;;6.43;1.90;;;;;;;;;;5084327;28;20031;-75
2022/07/15 20:36:43;;;;;;;4.38;1.95;;;;;;;;;;5088546;28;20089;-75
2022/07/15 20:39:11;;;;;;;5.07;2.13;;;;;;;;;;5090012;28;20067;-75
2022/07/15 20:41:37;;;;;;;5.18;1.80;;;;;;;;;;5078321;28;20025;-75
2022/07/15 20:44:04;;;;;;;6.93;2.35;;;;;;;;;;5088824;28;20028;-75
2022/07/15 20:46:30;;;;;;;5.50;2.50;;;;;;;;;;5086081;28;20032;-75
2022/07/15 20:48:56;;;;;;;5.72;2.58;;;;;;;;;;5087799;28;20894;-75
2022/07/15 20:51:23;;;;;;;5.18;2.42;;;;;;;;;;5086469;28;20051;-75
2022/07/15 20:53:49;;;;;;;4.13;2.33;;;;;;;;;;5089749;28;20508;-75
2022/07/15 20:56:15;;;;;;;4.43;2.20;;;;;;;;;;5085945;28;20035;-75
2022/07/15 20:58:41;;;;;;;6.85;1.75;;;;;;;;;;5088745;28;20064;-75
2022/07/15 21:01:07;;;;;;;5.65;2.08;;;;;;;;;;5093447;28;20073;-75
2022/07/15 21:03:33;;;;;;;5.82;1.90;;;;;;;;;;5090457;28;20038;-75
2022/07/15 21:05:59;;;;;;;6.50;2.28;;;;;;;;;;5086027;28;20038;-75
2022/07/15 21:08:25;;;;;;;5.38;2.00;;;;;;;;;;5087314;28;20043;-75
2022/07/15 21:10:51;;;;;;;7.38;1.90;;;;;;;;;;5086455;28;20032;-75
2022/07/15 21:13:17;;;;;;;4.03;1.73;;;;;;;;;;5091630;28;20028;-75
2022/07/15 21:15:43;;;;;;;6.43;2.08;;;;;;;;;;5092033;28;20036;-75
2022/07/15 21:18:09;;;;;;;6.38;1.92;;;;;;;;;;5086376;28;20382;-75
2022/07/15 21:20:35;;;;;;;6.13;2.30;;;;;;;;;;5084573;28;20067;-75
2022/07/15 21:23:02;;;;;;;4.45;2.25;;;;;;;;;;5088440;28;20035;-75
2022/07/15 21:28:12;;;;;;;4.97;2.35;;;;;;;;;;5087542;28;20288;-75
2022/07/15 21:30:39;;;;;;;4.68;1.85;;;;;;;;;;5074318;28;20538;-75
2022/07/15 21:33:05;;;;;;;5.28;2.03;;;;;;;;;;5084868;28;20043;-75
2022/07/15 21:35:31;;;;;;;5.75;2.25;;;;;;;;;;5087183;28;20047;-75
2022/07/15 21:37:57;;;;;;;6.20;1.90;;;;;;;;;;5092113;28;20036;-75
2022/07/15 21:40:23;;;;;;;3.92;1.80;;;;;;;;;;5092735;28;20489;-75
2022/07/15 21:42:50;;;;;;;5.40;2.20;;;;;;;;;;5067415;28;20039;-75
2022/07/15 21:45:16;;;;;;;4.00;1.83;;;;;;;;;;5088145;28;20029;-75
2022/07/15 21:47:42;;;;;;;5.75;2.05;;;;;;;;;;5090720;28;20040;-75
2022/07/15 21:50:09;;;;;;;6.53;1.77;;;;;;;;;;5086420;28;20028;-75
2022/07/15 21:52:35;;;;;;;5.45;1.88;;;;;;;;;;5085118;28;20523;-75
2022/07/15 21:55:01;;;;;;;5.95;2.20;;;;;;;;;;5087173;28;20040;-75
2022/07/15 21:57:28;;;;;;;5.30;2.15;;;;;;;;;;5066388;28;20089;-75
2022/07/15 21:59:54;;;;;;;4.55;2.17;;;;;;;;;;5089658;28;20039;-75
2022/07/15 22:02:20;;;;;;;9.15;2.65;;;;;;;;;;5069465;28;20041;-75
2022/07/15 22:04:46;;;;;;;6.78;3.05;;;;;;;;;;5072707;28;20133;-75
2022/07/15 22:07:13;;;;;;;11.45;2.85;;;;;;;;;;5090421;28;20068;-75
2022/07/15 22:09:39;;;;;;;6.18;2.20;;;;;;;;;;5085645;28;20501;-75
2022/07/15 22:12:05;;;;;;;5.72;2.35;;;;;;;;;;5088927;28;20028;-75
2022/07/15 22:14:32;;;;;;;8.15;2.20;;;;;;;;;;5086243;28;20031;-75
2022/07/15 22:16:58;;;;;;;4.65;2.03;;;;;;;;;;5070149;28;20574;-75
2022/07/15 22:19:24;;;;;;;7.93;2.22;;;;;;;;;;5087844;28;20745;-74
2022/07/15 22:21:50;;;;;;;5.60;2.30;;;;;;;;;;5088962;28;20040;-75
2022/07/15 22:24:16;;;;;;;5.45;2.10;;;;;;;;;;5089702;28;20035;-75
2022/07/15 22:26:42;;;;;;;6.15;2.20;;;;;;;;;;5061971;28;20028;-75
2022/07/15 22:29:08;;;;;;;6.25;1.88;;;;;;;;;;5089226;28;20417;-75
2022/07/15 22:31:36;;;;;;;3.67;1.90;;;;;;;;;;5087780;28;20063;-75
2022/07/15 22:34:02;;;;;;;6.40;2.35;;;;;;;;;;5089280;28;20028;-75
2022/07/15 22:36:28;;;;;;;5.72;2.10;;;;;;;;;;5088828;28;20043;-75
2022/07/15 22:38:54;;;;;;;6.68;2.17;;;;;;;;;;5088588;28;20031;-75
2022/07/15 22:41:20;;;;;;;7.25;1.92;;;;;;;;;;5088756;28;20435;-75
2022/07/15 22:43:46;;;;;;;7.03;2.20;;;;;;;;;;5069639;28;20095;-75
2022/07/15 22:46:12;;;;;;;4.75;1.92;;;;;;;;;;5084373;28;20036;-74
2022/07/15 22:48:38;;;;;;;4.40;2.08;;;;;;;;;;5088223;28;20510;-75
2022/07/15 22:51:04;;;;;;;7.18;2.40;;;;;;;;;;5088796;28;20036;-75
2022/07/15 22:53:30;;;;;;;4.43;2.05;;;;;;;;;;5088524;28;20036;-75
2022/07/15 22:55:56;;;;;;;4.72;2.00;;;;;;;;;;5062838;28;20043;-75
2022/07/15 22:58:22;;;;;;;5.53;2.10;;;;;;;;;;5087651;28;20135;-75
2022/07/15 23:00:49;;;;;;;5.05;2.00;;;;;;;;;;5088954;28;20043;-75
2022/07/15 23:03:15;;;;;;;4.97;2.10;;;;;;;;;;5087795;28;20039;-75
2022/07/15 23:05:41;;;;;;;5.55;2.60;;;;;;;;;;5089139;28;20036;-75
2022/07/15 23:08:07;;;;;;;4.78;2.00;;;;;;;;;;5088006;28;20012;-75
2022/07/15 23:10:33;;;;;;;6.00;2.00;;;;;;;;;;5087736;28;20471;-75
2022/07/15 23:12:59;;;;;;;5.00;2.15;;;;;;;;;;5088815;28;20039;-75
2022/07/15 23:15:25;;;;;;;6.45;2.78;;;;;;;;;;5070050;28;20044;-75
2022/07/15 23:17:51;;;;;;;4.70;2.30;;;;;;;;;;5087941;28;20028;-75
2022/07/15 23:20:17;;;;;;;7.00;2.72;;;;;;;;;;5088174;28;20032;-75
2022/07/15 23:22:43;;;;;;;10.60;2.28;;;;;;;;;;5088275;28;20029;-75
2022/07/15 23:25:09;;;;;;;9.13;2.10;;;;;;;;;;5087472;28;20036;-75
2022/07/15 23:27:35;;;;;;;5.22;2.60;;;;;;;;;;5087877;28;20032;-74
2022/07/15 23:30:01;;;;;;;5.60;2.33;;;;;;;;;;5086568;28;20028;-75
2022/07/15 23:32:27;;;;;;;5.75;2.40;;;;;;;;;;5088082;28;20043;-75
2022/07/15 23:34:53;;;;;;;6.90;2.50;;;;;;;;;;5086682;28;20039;-75
2022/07/15 23:37:19;;;;;;;5.53;2.00;;;;;;;;;;5069737;28;20386;-75
2022/07/15 23:39:47;;;;;;;5.30;2.10;;;;;;;;;;5086883;28;20036;-75
2022/07/15 23:42:13;;;;;;;3.92;2.03;;;;;;;;;;5088528;28;20174;-75
2022/07/15 23:44:39;;;;;;;4.50;2.15;;;;;;;;;;5087285;28;20035;-75
2022/07/15 23:47:05;;;;;;;4.13;2.13;;;;;;;;;;5088220;28;20038;-75
2022/07/15 23:49:32;;;;;;;6.05;2.35;;;;;;;;;;5086663;28;20081;-75
2022/07/15 23:51:58;;;;;;;3.60;1.85;;;;;;;;;;5088494;28;20035;-74
2022/07/15 23:54:24;;;;;;;8.88;2.55;;;;;;;;;;5083691;28;20032;-75
2022/07/15 23:56:50;;;;;;;3.90;1.95;;;;;;;;;;5069342;28;20416;-75
